sensor_id;sensor_type;location;lat;lon;timestamp;P1;durP1;ratioP1;P2;durP2;ratioP2
23628;SDS011;11991;57.150;-2.134;2023-08-30T00:01:27;0.43;;;0.30;;
23628;SDS011;11991;57.150;-2.134;2023-08-30T00:03:54;1.05;;;0.50;;
23628;SDS011;11991;57.150;-2.134;2023-08-30T00:06:21;0.98;;;0.50;;
23628;SDS011;11991;57.150;-2.134;2023-08-30T00:08:48;1.38;;;0.50;;
23628;SDS011;11991;57.150;-2.134;2023-08-30T00:11:15;2.72;;;0.80;;
23628;SDS011;11991;57.150;-2.134;2023-08-30T00:13:43;1.73;;;0.70;;
23628;SDS011;11991;57.150;-2.134;2023-08-30T00:16:10;2.22;;;0.65;;
23628;SDS011;11991;57.150;-2.134;2023-08-30T00:18:40;0.75;;;0.50;;
23628;SDS011;11991;57.150;-2.134;2023-08-30T00:21:07;2.13;;;0.73;;
23628;SDS011;11991;57.150;-2.134;2023-08-30T00:23:35;0.98;;;0.55;;
23628;SDS011;11991;57.150;-2.134;2023-08-30T00:26:02;2.20;;;0.60;;
23628;SDS011;11991;57.150;-2.134;2023-08-30T00:28:29;1.45;;;0.68;;
23628;SDS011;11991;57.150;-2.134;2023-08-30T00:30:56;3.22;;;1.00;;
23628;SDS011;11991;57.150;-2.134;2023-08-30T00:33:23;2.78;;;0.65;;
23628;SDS011;11991;57.150;-2.134;2023-08-30T00:35:57;1.48;;;0.65;;
23628;SDS011;11991;57.150;-2.134;2023-08-30T00:38:26;1.33;;;0.70;;
23628;SDS011;11991;57.150;-2.134;2023-08-30T00:40:54;1.85;;;0.70;;
23628;SDS011;11991;57.150;-2.134;2023-08-30T00:43:21;2.67;;;1.00;;
23628;SDS011;11991;57.150;-2.134;2023-08-30T00:45:48;2.13;;;0.70;;
23628;SDS011;11991;57.150;-2.134;2023-08-30T00:48:19;2.10;;;0.98;;
23628;SDS011;11991;57.150;-2.134;2023-08-30T00:50:47;0.98;;;0.75;;
23628;SDS011;11991;57.150;-2.134;2023-08-30T00:53:15;2.75;;;0.82;;
23628;SDS011;11991;57.150;-2.134;2023-08-30T00:55:44;0.80;;;0.50;;
23628;SDS011;11991;57.150;-2.134;2023-08-30T00:58:11;2.53;;;1.23;;
23628;SDS011;11991;57.150;-2.134;2023-08-30T01:00:39;2.22;;;0.85;;
23628;SDS011;11991;57.150;-2.134;2023-08-30T01:03:09;2.25;;;0.75;;
23628;SDS011;11991;57.150;-2.134;2023-08-30T01:05:36;2.05;;;0.77;;
23628;SDS011;11991;57.150;-2.134;2023-08-30T01:08:04;2.05;;;1.00;;
23628;SDS011;11991;57.150;-2.134;2023-08-30T01:10:38;0.75;;;0.50;;
23628;SDS011;11991;57.150;-2.134;2023-08-30T01:13:20;1.00;;;0.70;;
23628;SDS011;11991;57.150;-2.134;2023-08-30T01:15:48;2.65;;;0.65;;
23628;SDS011;11991;57.150;-2.134;2023-08-30T01:18:17;1.90;;;0.80;;
23628;SDS011;11991;57.150;-2.134;2023-08-30T01:20:46;1.48;;;0.90;;
23628;SDS011;11991;57.150;-2.134;2023-08-30T01:28:30;2.05;;;0.70;;
23628;SDS011;11991;57.150;-2.134;2023-08-30T01:30:59;3.72;;;0.90;;
23628;SDS011;11991;57.150;-2.134;2023-08-30T01:33:27;2.00;;;0.77;;
23628;SDS011;11991;57.150;-2.134;2023-08-30T01:35:55;1.75;;;0.70;;
23628;SDS011;11991;57.150;-2.134;2023-08-30T01:38:26;2.35;;;0.95;;
23628;SDS011;11991;57.150;-2.134;2023-08-30T01:40:54;1.27;;;0.70;;
23628;SDS011;11991;57.150;-2.134;2023-08-30T01:43:24;2.20;;;0.90;;
23628;SDS011;11991;57.150;-2.134;2023-08-30T01:45:53;2.00;;;0.73;;
23628;SDS011;11991;57.150;-2.134;2023-08-30T01:48:22;1.20;;;0.82;;
23628;SDS011;11991;57.150;-2.134;2023-08-30T01:50:51;1.75;;;0.80;;
23628;SDS011;11991;57.150;-2.134;2023-08-30T01:53:18;2.58;;;0.80;;
23628;SDS011;11991;57.150;-2.134;2023-08-30T01:55:47;0.90;;;0.60;;
23628;SDS011;11991;57.150;-2.134;2023-08-30T01:58:14;1.20;;;0.70;;
23628;SDS011;11991;57.150;-2.134;2023-08-30T02:00:41;2.28;;;0.50;;
23628;SDS011;11991;57.150;-2.134;2023-08-30T02:03:12;0.77;;;0.50;;
23628;SDS011;11991;57.150;-2.134;2023-08-30T02:05:48;1.10;;;0.73;;
23628;SDS011;11991;57.150;-2.134;2023-08-30T02:08:37;1.27;;;0.50;;
23628;SDS011;11991;57.150;-2.134;2023-08-30T02:11:11;2.10;;;1.00;;
23628;SDS011;11991;57.150;-2.134;2023-08-30T02:13:43;2.80;;;0.85;;
23628;SDS011;11991;57.150;-2.134;2023-08-30T02:16:13;2.80;;;1.02;;
23628;SDS011;11991;57.150;-2.134;2023-08-30T02:18:41;3.95;;;1.40;;
23628;SDS011;11991;57.150;-2.134;2023-08-30T02:21:08;1.23;;;0.70;;
23628;SDS011;11991;57.150;-2.134;2023-08-30T02:23:36;0.98;;;0.70;;
23628;SDS011;11991;57.150;-2.134;2023-08-30T02:26:03;3.63;;;0.90;;
23628;SDS011;11991;57.150;-2.134;2023-08-30T02:28:30;2.58;;;0.90;;
23628;SDS011;11991;57.150;-2.134;2023-08-30T02:30:57;3.75;;;1.20;;
23628;SDS011;11991;57.150;-2.134;2023-08-30T02:33:25;2.33;;;0.73;;
23628;SDS011;11991;57.150;-2.134;2023-08-30T02:35:52;2.15;;;1.08;;
23628;SDS011;11991;57.150;-2.134;2023-08-30T02:38:20;1.38;;;0.82;;
23628;SDS011;11991;57.150;-2.134;2023-08-30T02:40:47;1.88;;;1.00;;
23628;SDS011;11991;57.150;-2.134;2023-08-30T02:43:15;3.83;;;0.90;;
23628;SDS011;11991;57.150;-2.134;2023-08-30T02:45:43;1.73;;;0.50;;
23628;SDS011;11991;57.150;-2.134;2023-08-30T02:48:10;1.35;;;0.90;;
23628;SDS011;11991;57.150;-2.134;2023-08-30T02:50:40;1.15;;;0.60;;
23628;SDS011;11991;57.150;-2.134;2023-08-30T02:53:07;1.42;;;0.63;;
23628;SDS011;11991;57.150;-2.134;2023-08-30T02:55:35;1.85;;;0.80;;
23628;SDS011;11991;57.150;-2.134;2023-08-30T02:58:02;1.52;;;0.82;;
23628;SDS011;11991;57.150;-2.134;2023-08-30T03:00:29;2.08;;;1.08;;
23628;SDS011;11991;57.150;-2.134;2023-08-30T03:02:58;1.67;;;0.80;;
23628;SDS011;11991;57.150;-2.134;2023-08-30T03:05:25;2.38;;;0.80;;
23628;SDS011;11991;57.150;-2.134;2023-08-30T03:07:53;2.13;;;1.00;;
23628;SDS011;11991;57.150;-2.134;2023-08-30T03:10:21;2.13;;;0.90;;
23628;SDS011;11991;57.150;-2.134;2023-08-30T03:12:49;3.80;;;1.10;;
23628;SDS011;11991;57.150;-2.134;2023-08-30T03:15:17;3.38;;;1.33;;
23628;SDS011;11991;57.150;-2.134;2023-08-30T03:17:44;2.55;;;0.80;;
23628;SDS011;11991;57.150;-2.134;2023-08-30T03:20:12;3.38;;;0.90;;
23628;SDS011;11991;57.150;-2.134;2023-08-30T03:22:39;2.67;;;1.00;;
23628;SDS011;11991;57.150;-2.134;2023-08-30T03:25:06;2.90;;;0.93;;
23628;SDS011;11991;57.150;-2.134;2023-08-30T03:27:38;4.00;;;1.23;;
23628;SDS011;11991;57.150;-2.134;2023-08-30T03:30:06;1.98;;;0.98;;
23628;SDS011;11991;57.150;-2.134;2023-08-30T03:32:34;3.63;;;1.40;;
23628;SDS011;11991;57.150;-2.134;2023-08-30T03:35:01;3.50;;;1.02;;
23628;SDS011;11991;57.150;-2.134;2023-08-30T03:37:31;2.50;;;1.15;;
23628;SDS011;11991;57.150;-2.134;2023-08-30T03:40:00;3.65;;;1.13;;
23628;SDS011;11991;57.150;-2.134;2023-08-30T03:42:27;3.05;;;1.02;;
23628;SDS011;11991;57.150;-2.134;2023-08-30T03:44:55;5.30;;;1.25;;
23628;SDS011;11991;57.150;-2.134;2023-08-30T03:47:22;5.55;;;1.42;;
23628;SDS011;11991;57.150;-2.134;2023-08-30T03:49:49;4.00;;;1.55;;
23628;SDS011;11991;57.150;-2.134;2023-08-30T03:52:16;2.10;;;1.20;;
23628;SDS011;11991;57.150;-2.134;2023-08-30T03:54:43;3.95;;;1.23;;
23628;SDS011;11991;57.150;-2.134;2023-08-30T03:57:10;4.45;;;1.10;;
23628;SDS011;11991;57.150;-2.134;2023-08-30T03:59:38;2.15;;;0.73;;
23628;SDS011;11991;57.150;-2.134;2023-08-30T04:02:05;4.28;;;1.45;;
23628;SDS011;11991;57.150;-2.134;2023-08-30T04:04:32;3.03;;;1.35;;
23628;SDS011;11991;57.150;-2.134;2023-08-30T04:06:59;3.95;;;1.58;;
23628;SDS011;11991;57.150;-2.134;2023-08-30T04:09:26;4.95;;;1.38;;
23628;SDS011;11991;57.150;-2.134;2023-08-30T04:11:53;4.10;;;1.77;;
23628;SDS011;11991;57.150;-2.134;2023-08-30T04:14:20;1.77;;;1.05;;
23628;SDS011;11991;57.150;-2.134;2023-08-30T04:16:50;3.75;;;1.40;;
23628;SDS011;11991;57.150;-2.134;2023-08-30T04:19:17;3.67;;;1.30;;
23628;SDS011;11991;57.150;-2.134;2023-08-30T04:21:44;3.47;;;1.35;;
23628;SDS011;11991;57.150;-2.134;2023-08-30T04:24:11;3.85;;;1.50;;
23628;SDS011;11991;57.150;-2.134;2023-08-30T04:26:38;6.25;;;1.80;;
23628;SDS011;11991;57.150;-2.134;2023-08-30T04:29:05;8.18;;;1.63;;
23628;SDS011;11991;57.150;-2.134;2023-08-30T04:31:33;4.60;;;1.50;;
23628;SDS011;11991;57.150;-2.134;2023-08-30T04:34:00;3.85;;;1.48;;
23628;SDS011;11991;57.150;-2.134;2023-08-30T04:36:27;6.88;;;1.80;;
23628;SDS011;11991;57.150;-2.134;2023-08-30T04:38:54;3.13;;;1.13;;
23628;SDS011;11991;57.150;-2.134;2023-08-30T04:41:31;4.65;;;1.38;;
23628;SDS011;11991;57.150;-2.134;2023-08-30T04:44:00;4.82;;;1.60;;
23628;SDS011;11991;57.150;-2.134;2023-08-30T04:46:28;3.22;;;1.15;;
23628;SDS011;11991;57.150;-2.134;2023-08-30T04:48:55;4.50;;;1.00;;
23628;SDS011;11991;57.150;-2.134;2023-08-30T04:51:22;4.43;;;1.10;;
23628;SDS011;11991;57.150;-2.134;2023-08-30T04:53:50;6.43;;;1.70;;
23628;SDS011;11991;57.150;-2.134;2023-08-30T04:56:17;4.93;;;1.30;;
23628;SDS011;11991;57.150;-2.134;2023-08-30T04:58:45;7.78;;;1.75;;
23628;SDS011;11991;57.150;-2.134;2023-08-30T05:01:12;2.78;;;1.13;;
23628;SDS011;11991;57.150;-2.134;2023-08-30T05:03:43;4.55;;;1.45;;
23628;SDS011;11991;57.150;-2.134;2023-08-30T05:06:12;1.50;;;0.80;;
23628;SDS011;11991;57.150;-2.134;2023-08-30T05:08:43;2.03;;;0.90;;
23628;SDS011;11991;57.150;-2.134;2023-08-30T05:11:10;4.13;;;1.33;;
23628;SDS011;11991;57.150;-2.134;2023-08-30T05:13:38;3.97;;;1.00;;
23628;SDS011;11991;57.150;-2.134;2023-08-30T05:16:05;2.63;;;0.90;;
23628;SDS011;11991;57.150;-2.134;2023-08-30T05:18:32;4.18;;;1.33;;
23628;SDS011;11991;57.150;-2.134;2023-08-30T05:21:01;4.35;;;1.27;;
23628;SDS011;11991;57.150;-2.134;2023-08-30T05:23:30;5.47;;;1.60;;
23628;SDS011;11991;57.150;-2.134;2023-08-30T05:25:58;3.03;;;1.10;;
23628;SDS011;11991;57.150;-2.134;2023-08-30T05:28:25;5.55;;;1.92;;
23628;SDS011;11991;57.150;-2.134;2023-08-30T05:30:52;3.95;;;1.60;;
23628;SDS011;11991;57.150;-2.134;2023-08-30T05:33:27;5.80;;;1.38;;
23628;SDS011;11991;57.150;-2.134;2023-08-30T05:36:17;4.72;;;1.77;;
23628;SDS011;11991;57.150;-2.134;2023-08-30T05:38:55;2.75;;;1.60;;
23628;SDS011;11991;57.150;-2.134;2023-08-30T05:41:33;4.88;;;1.42;;
23628;SDS011;11991;57.150;-2.134;2023-08-30T05:44:00;5.13;;;1.58;;
23628;SDS011;11991;57.150;-2.134;2023-08-30T05:46:27;4.57;;;1.15;;
23628;SDS011;11991;57.150;-2.134;2023-08-30T05:48:54;3.05;;;1.58;;
23628;SDS011;11991;57.150;-2.134;2023-08-30T05:51:22;6.32;;;1.52;;
23628;SDS011;11991;57.150;-2.134;2023-08-30T05:53:49;3.20;;;1.48;;
23628;SDS011;11991;57.150;-2.134;2023-08-30T05:56:16;2.85;;;1.20;;
23628;SDS011;11991;57.150;-2.134;2023-08-30T05:58:44;6.55;;;1.95;;
23628;SDS011;11991;57.150;-2.134;2023-08-30T06:01:11;2.35;;;1.23;;
23628;SDS011;11991;57.150;-2.134;2023-08-30T06:03:38;2.85;;;1.10;;
23628;SDS011;11991;57.150;-2.134;2023-08-30T06:06:05;3.83;;;1.58;;
23628;SDS011;11991;57.150;-2.134;2023-08-30T06:08:32;4.43;;;1.80;;
23628;SDS011;11991;57.150;-2.134;2023-08-30T06:10:59;2.53;;;1.30;;
23628;SDS011;11991;57.150;-2.134;2023-08-30T06:13:27;4.75;;;1.90;;
23628;SDS011;11991;57.150;-2.134;2023-08-30T06:15:54;3.38;;;1.40;;
23628;SDS011;11991;57.150;-2.134;2023-08-30T06:18:21;5.03;;;1.73;;
23628;SDS011;11991;57.150;-2.134;2023-08-30T06:20:48;4.47;;;1.25;;
23628;SDS011;11991;57.150;-2.134;2023-08-30T06:23:17;4.65;;;2.28;;
23628;SDS011;11991;57.150;-2.134;2023-08-30T06:25:52;3.83;;;1.55;;
23628;SDS011;11991;57.150;-2.134;2023-08-30T06:28:23;4.93;;;1.90;;
23628;SDS011;11991;57.150;-2.134;2023-08-30T06:30:50;6.28;;;2.42;;
23628;SDS011;11991;57.150;-2.134;2023-08-30T06:33:18;5.30;;;2.03;;
23628;SDS011;11991;57.150;-2.134;2023-08-30T06:35:47;2.55;;;1.23;;
23628;SDS011;11991;57.150;-2.134;2023-08-30T06:38:15;4.28;;;1.60;;
23628;SDS011;11991;57.150;-2.134;2023-08-30T06:40:43;3.53;;;1.75;;
23628;SDS011;11991;57.150;-2.134;2023-08-30T06:43:11;4.45;;;1.63;;
23628;SDS011;11991;57.150;-2.134;2023-08-30T06:45:39;3.63;;;1.50;;
23628;SDS011;11991;57.150;-2.134;2023-08-30T06:48:07;3.05;;;1.23;;
23628;SDS011;11991;57.150;-2.134;2023-08-30T06:50:35;3.63;;;1.90;;
23628;SDS011;11991;57.150;-2.134;2023-08-30T06:53:02;3.28;;;1.40;;
23628;SDS011;11991;57.150;-2.134;2023-08-30T06:55:30;5.82;;;1.83;;
23628;SDS011;11991;57.150;-2.134;2023-08-30T06:57:58;2.67;;;1.70;;
23628;SDS011;11991;57.150;-2.134;2023-08-30T07:00:25;5.32;;;1.80;;
23628;SDS011;11991;57.150;-2.134;2023-08-30T07:02:53;5.55;;;2.03;;
23628;SDS011;11991;57.150;-2.134;2023-08-30T07:05:21;4.53;;;1.50;;
23628;SDS011;11991;57.150;-2.134;2023-08-30T07:07:49;5.00;;;1.73;;
23628;SDS011;11991;57.150;-2.134;2023-08-30T07:10:16;2.35;;;1.33;;
23628;SDS011;11991;57.150;-2.134;2023-08-30T07:12:43;4.47;;;1.63;;
23628;SDS011;11991;57.150;-2.134;2023-08-30T07:15:15;6.47;;;1.90;;
23628;SDS011;11991;57.150;-2.134;2023-08-30T07:17:43;4.63;;;1.60;;
23628;SDS011;11991;57.150;-2.134;2023-08-30T07:20:13;3.33;;;1.85;;
23628;SDS011;11991;57.150;-2.134;2023-08-30T07:22:40;3.70;;;1.88;;
23628;SDS011;11991;57.150;-2.134;2023-08-30T07:25:08;4.65;;;1.60;;
23628;SDS011;11991;57.150;-2.134;2023-08-30T07:27:36;3.95;;;1.73;;
23628;SDS011;11991;57.150;-2.134;2023-08-30T07:30:04;7.60;;;2.00;;
23628;SDS011;11991;57.150;-2.134;2023-08-30T07:32:32;6.25;;;1.80;;
23628;SDS011;11991;57.150;-2.134;2023-08-30T07:34:59;4.32;;;1.83;;
23628;SDS011;11991;57.150;-2.134;2023-08-30T07:37:26;2.20;;;1.42;;
23628;SDS011;11991;57.150;-2.134;2023-08-30T07:39:53;8.35;;;2.00;;
23628;SDS011;11991;57.150;-2.134;2023-08-30T07:42:21;3.55;;;1.88;;
23628;SDS011;11991;57.150;-2.134;2023-08-30T07:44:48;4.70;;;2.10;;
23628;SDS011;11991;57.150;-2.134;2023-08-30T07:47:16;4.38;;;1.70;;
23628;SDS011;11991;57.150;-2.134;2023-08-30T07:49:43;6.32;;;2.03;;
23628;SDS011;11991;57.150;-2.134;2023-08-30T07:52:10;5.50;;;2.28;;
23628;SDS011;11991;57.150;-2.134;2023-08-30T07:54:37;4.25;;;1.70;;
23628;SDS011;11991;57.150;-2.134;2023-08-30T07:57:06;7.50;;;2.17;;
23628;SDS011;11991;57.150;-2.134;2023-08-30T07:59:34;7.93;;;2.40;;
23628;SDS011;11991;57.150;-2.134;2023-08-30T08:02:03;3.65;;;1.92;;
23628;SDS011;11991;57.150;-2.134;2023-08-30T08:04:36;4.95;;;2.28;;
23628;SDS011;11991;57.150;-2.134;2023-08-30T08:07:04;3.40;;;1.30;;
23628;SDS011;11991;57.150;-2.134;2023-08-30T08:09:31;3.95;;;1.65;;
23628;SDS011;11991;57.150;-2.134;2023-08-30T08:11:59;4.80;;;2.20;;
23628;SDS011;11991;57.150;-2.134;2023-08-30T08:14:26;4.85;;;1.65;;
23628;SDS011;11991;57.150;-2.134;2023-08-30T08:16:53;8.25;;;2.22;;
23628;SDS011;11991;57.150;-2.134;2023-08-30T08:19:21;3.92;;;1.70;;
23628;SDS011;11991;57.150;-2.134;2023-08-30T08:21:51;4.45;;;1.80;;
23628;SDS011;11991;57.150;-2.134;2023-08-30T08:24:21;3.33;;;1.80;;
23628;SDS011;11991;57.150;-2.134;2023-08-30T08:26:48;6.47;;;2.25;;
23628;SDS011;11991;57.150;-2.134;2023-08-30T08:29:15;4.32;;;2.15;;
23628;SDS011;11991;57.150;-2.134;2023-08-30T08:31:43;5.00;;;2.20;;
23628;SDS011;11991;57.150;-2.134;2023-08-30T08:34:11;10.57;;;1.95;;
23628;SDS011;11991;57.150;-2.134;2023-08-30T08:36:39;10.20;;;2.20;;
23628;SDS011;11991;57.150;-2.134;2023-08-30T08:42:00;3.50;;;1.65;;
23628;SDS011;11991;57.150;-2.134;2023-08-30T08:44:31;3.10;;;1.50;;
23628;SDS011;11991;57.150;-2.134;2023-08-30T08:46:59;2.53;;;1.00;;
23628;SDS011;11991;57.150;-2.134;2023-08-30T08:49:27;7.60;;;2.15;;
23628;SDS011;11991;57.150;-2.134;2023-08-30T08:51:55;2.00;;;1.30;;
23628;SDS011;11991;57.150;-2.134;2023-08-30T08:54:23;2.58;;;1.50;;
23628;SDS011;11991;57.150;-2.134;2023-08-30T08:56:52;4.68;;;1.95;;
23628;SDS011;11991;57.150;-2.134;2023-08-30T08:59:20;5.35;;;1.73;;
23628;SDS011;11991;57.150;-2.134;2023-08-30T09:01:48;4.43;;;2.10;;
23628;SDS011;11991;57.150;-2.134;2023-08-30T09:04:15;3.85;;;1.80;;
23628;SDS011;11991;57.150;-2.134;2023-08-30T09:06:43;2.88;;;1.60;;
23628;SDS011;11991;57.150;-2.134;2023-08-30T09:09:10;4.20;;;1.90;;
23628;SDS011;11991;57.150;-2.134;2023-08-30T09:11:38;4.78;;;1.70;;
23628;SDS011;11991;57.150;-2.134;2023-08-30T09:14:08;3.88;;;1.73;;
23628;SDS011;11991;57.150;-2.134;2023-08-30T09:16:36;4.07;;;1.75;;
23628;SDS011;11991;57.150;-2.134;2023-08-30T09:19:03;5.22;;;1.83;;
23628;SDS011;11991;57.150;-2.134;2023-08-30T09:21:34;4.82;;;1.42;;
23628;SDS011;11991;57.150;-2.134;2023-08-30T09:24:01;4.70;;;1.90;;
23628;SDS011;11991;57.150;-2.134;2023-08-30T09:26:31;1.65;;;1.02;;
23628;SDS011;11991;57.150;-2.134;2023-08-30T09:31:37;4.95;;;2.03;;
23628;SDS011;11991;57.150;-2.134;2023-08-30T09:34:05;5.13;;;1.77;;
23628;SDS011;11991;57.150;-2.134;2023-08-30T09:36:36;4.85;;;1.95;;
23628;SDS011;11991;57.150;-2.134;2023-08-30T09:39:05;4.20;;;1.77;;
23628;SDS011;11991;57.150;-2.134;2023-08-30T09:41:32;5.65;;;1.63;;
23628;SDS011;11991;57.150;-2.134;2023-08-30T09:44:05;5.47;;;1.90;;
23628;SDS011;11991;57.150;-2.134;2023-08-30T09:46:43;5.32;;;1.40;;
23628;SDS011;11991;57.150;-2.134;2023-08-30T09:49:24;2.90;;;1.38;;
23628;SDS011;11991;57.150;-2.134;2023-08-30T09:51:53;7.03;;;1.77;;
23628;SDS011;11991;57.150;-2.134;2023-08-30T09:54:41;2.67;;;1.20;;
23628;SDS011;11991;57.150;-2.134;2023-08-30T09:57:10;3.95;;;1.30;;
23628;SDS011;11991;57.150;-2.134;2023-08-30T09:59:38;4.72;;;1.50;;
23628;SDS011;11991;57.150;-2.134;2023-08-30T10:02:05;3.30;;;1.38;;
23628;SDS011;11991;57.150;-2.134;2023-08-30T10:04:35;4.03;;;1.40;;
23628;SDS011;11991;57.150;-2.134;2023-08-30T10:07:07;1.77;;;1.40;;
23628;SDS011;11991;57.150;-2.134;2023-08-30T10:09:35;4.78;;;1.90;;
23628;SDS011;11991;57.150;-2.134;2023-08-30T10:12:14;3.67;;;1.63;;
23628;SDS011;11991;57.150;-2.134;2023-08-30T10:14:42;2.47;;;1.60;;
23628;SDS011;11991;57.150;-2.134;2023-08-30T10:17:09;2.90;;;1.20;;
23628;SDS011;11991;57.150;-2.134;2023-08-30T10:19:40;2.42;;;1.42;;
23628;SDS011;11991;57.150;-2.134;2023-08-30T10:22:10;4.25;;;1.45;;
23628;SDS011;11991;57.150;-2.134;2023-08-30T10:24:42;4.65;;;1.80;;
23628;SDS011;11991;57.150;-2.134;2023-08-30T10:27:33;3.30;;;1.50;;
23628;SDS011;11991;57.150;-2.134;2023-08-30T10:30:04;4.00;;;1.55;;
23628;SDS011;11991;57.150;-2.134;2023-08-30T10:32:38;3.67;;;1.45;;
23628;SDS011;11991;57.150;-2.134;2023-08-30T10:35:06;5.18;;;1.70;;
23628;SDS011;11991;57.150;-2.134;2023-08-30T10:37:33;2.55;;;1.80;;
23628;SDS011;11991;57.150;-2.134;2023-08-30T10:40:03;3.08;;;1.10;;
23628;SDS011;11991;57.150;-2.134;2023-08-30T10:42:30;2.70;;;1.17;;
23628;SDS011;11991;57.150;-2.134;2023-08-30T10:44:59;3.28;;;1.40;;
23628;SDS011;11991;57.150;-2.134;2023-08-30T10:47:31;1.65;;;0.98;;
23628;SDS011;11991;57.150;-2.134;2023-08-30T10:50:08;2.55;;;1.38;;
23628;SDS011;11991;57.150;-2.134;2023-08-30T10:52:37;4.75;;;1.52;;
23628;SDS011;11991;57.150;-2.134;2023-08-30T10:55:11;3.33;;;1.40;;
23628;SDS011;11991;57.150;-2.134;2023-08-30T10:57:45;3.35;;;1.30;;
23628;SDS011;11991;57.150;-2.134;2023-08-30T11:00:18;4.00;;;1.20;;
23628;SDS011;11991;57.150;-2.134;2023-08-30T11:02:49;2.67;;;1.30;;
23628;SDS011;11991;57.150;-2.134;2023-08-30T11:05:21;3.88;;;1.33;;
23628;SDS011;11991;57.150;-2.134;2023-08-30T11:07:50;1.23;;;0.80;;
23628;SDS011;11991;57.150;-2.134;2023-08-30T11:10:18;2.33;;;1.13;;
23628;SDS011;11991;57.150;-2.134;2023-08-30T11:12:46;5.82;;;1.73;;
23628;SDS011;11991;57.150;-2.134;2023-08-30T11:15:16;3.03;;;1.20;;
23628;SDS011;11991;57.150;-2.134;2023-08-30T11:17:44;1.73;;;1.23;;
23628;SDS011;11991;57.150;-2.134;2023-08-30T11:20:13;1.80;;;0.95;;
23628;SDS011;11991;57.150;-2.134;2023-08-30T11:22:44;1.83;;;1.10;;
23628;SDS011;11991;57.150;-2.134;2023-08-30T11:25:13;2.13;;;1.20;;
23628;SDS011;11991;57.150;-2.134;2023-08-30T11:27:42;2.83;;;1.40;;
23628;SDS011;11991;57.150;-2.134;2023-08-30T11:30:10;5.13;;;1.52;;
23628;SDS011;11991;57.150;-2.134;2023-08-30T11:32:38;1.30;;;0.80;;
23628;SDS011;11991;57.150;-2.134;2023-08-30T11:35:07;2.55;;;1.15;;
23628;SDS011;11991;57.150;-2.134;2023-08-30T11:37:34;3.63;;;1.27;;
23628;SDS011;11991;57.150;-2.134;2023-08-30T11:40:02;2.60;;;0.93;;
23628;SDS011;11991;57.150;-2.134;2023-08-30T11:42:32;2.38;;;1.15;;
23628;SDS011;11991;57.150;-2.134;2023-08-30T11:45:00;2.20;;;1.15;;
23628;SDS011;11991;57.150;-2.134;2023-08-30T11:47:29;1.55;;;0.90;;
23628;SDS011;11991;57.150;-2.134;2023-08-30T11:49:57;1.65;;;0.90;;
23628;SDS011;11991;57.150;-2.134;2023-08-30T11:52:25;0.95;;;0.85;;
23628;SDS011;11991;57.150;-2.134;2023-08-30T11:54:54;1.88;;;1.17;;
23628;SDS011;11991;57.150;-2.134;2023-08-30T11:57:21;2.63;;;1.00;;
23628;SDS011;11991;57.150;-2.134;2023-08-30T11:59:48;2.35;;;1.15;;
23628;SDS011;11991;57.150;-2.134;2023-08-30T12:02:18;3.30;;;1.10;;
23628;SDS011;11991;57.150;-2.134;2023-08-30T12:04:46;2.08;;;1.40;;
23628;SDS011;11991;57.150;-2.134;2023-08-30T12:07:26;3.05;;;1.33;;
23628;SDS011;11991;57.150;-2.134;2023-08-30T12:10:06;3.00;;;1.08;;
23628;SDS011;11991;57.150;-2.134;2023-08-30T12:12:35;3.25;;;1.38;;
23628;SDS011;11991;57.150;-2.134;2023-08-30T12:15:12;3.05;;;1.15;;
23628;SDS011;11991;57.150;-2.134;2023-08-30T12:17:43;2.95;;;1.10;;
23628;SDS011;11991;57.150;-2.134;2023-08-30T12:20:17;1.08;;;0.80;;
23628;SDS011;11991;57.150;-2.134;2023-08-30T12:22:47;2.35;;;1.00;;
23628;SDS011;11991;57.150;-2.134;2023-08-30T12:25:19;1.00;;;0.80;;
23628;SDS011;11991;57.150;-2.134;2023-08-30T12:27:47;1.08;;;0.90;;
23628;SDS011;11991;57.150;-2.134;2023-08-30T12:30:15;1.65;;;1.00;;
23628;SDS011;11991;57.150;-2.134;2023-08-30T12:32:43;2.65;;;0.88;;
23628;SDS011;11991;57.150;-2.134;2023-08-30T12:35:11;1.55;;;0.80;;
23628;SDS011;11991;57.150;-2.134;2023-08-30T12:37:39;3.60;;;0.90;;
23628;SDS011;11991;57.150;-2.134;2023-08-30T12:40:06;2.50;;;1.10;;
23628;SDS011;11991;57.150;-2.134;2023-08-30T12:42:33;3.10;;;0.90;;
23628;SDS011;11991;57.150;-2.134;2023-08-30T12:45:01;1.55;;;1.00;;
23628;SDS011;11991;57.150;-2.134;2023-08-30T12:47:30;3.85;;;1.10;;
23628;SDS011;11991;57.150;-2.134;2023-08-30T12:49:57;2.80;;;1.05;;
23628;SDS011;11991;57.150;-2.134;2023-08-30T12:52:24;2.17;;;0.80;;
23628;SDS011;11991;57.150;-2.134;2023-08-30T12:54:51;1.88;;;0.77;;
23628;SDS011;11991;57.150;-2.134;2023-08-30T12:57:20;1.48;;;0.90;;
23628;SDS011;11991;57.150;-2.134;2023-08-30T12:59:47;2.25;;;0.90;;
23628;SDS011;11991;57.150;-2.134;2023-08-30T13:02:14;2.67;;;1.20;;
23628;SDS011;11991;57.150;-2.134;2023-08-30T13:04:41;2.10;;;1.13;;
23628;SDS011;11991;57.150;-2.134;2023-08-30T13:07:08;1.30;;;0.82;;
23628;SDS011;11991;57.150;-2.134;2023-08-30T13:09:35;1.98;;;0.93;;
23628;SDS011;11991;57.150;-2.134;2023-08-30T13:12:03;2.85;;;1.20;;
23628;SDS011;11991;57.150;-2.134;2023-08-30T13:14:30;3.60;;;1.40;;
23628;SDS011;11991;57.150;-2.134;2023-08-30T13:16:57;2.08;;;1.02;;
23628;SDS011;11991;57.150;-2.134;2023-08-30T13:19:25;5.07;;;1.17;;
23628;SDS011;11991;57.150;-2.134;2023-08-30T13:21:52;1.73;;;0.90;;
23628;SDS011;11991;57.150;-2.134;2023-08-30T13:24:19;1.95;;;1.30;;
23628;SDS011;11991;57.150;-2.134;2023-08-30T13:26:46;1.70;;;1.20;;
23628;SDS011;11991;57.150;-2.134;2023-08-30T13:29:13;1.40;;;0.90;;
23628;SDS011;11991;57.150;-2.134;2023-08-30T13:31:41;1.02;;;0.90;;
23628;SDS011;11991;57.150;-2.134;2023-08-30T13:34:08;2.35;;;1.05;;
23628;SDS011;11991;57.150;-2.134;2023-08-30T13:36:35;1.50;;;1.00;;
23628;SDS011;11991;57.150;-2.134;2023-08-30T13:39:03;1.35;;;0.88;;
23628;SDS011;11991;57.150;-2.134;2023-08-30T13:41:30;1.48;;;0.90;;
23628;SDS011;11991;57.150;-2.134;2023-08-30T13:43:57;3.40;;;1.00;;
23628;SDS011;11991;57.150;-2.134;2023-08-30T13:46:28;2.17;;;0.95;;
23628;SDS011;11991;57.150;-2.134;2023-08-30T13:48:55;2.10;;;1.10;;
23628;SDS011;11991;57.150;-2.134;2023-08-30T13:51:24;1.65;;;0.70;;
23628;SDS011;11991;57.150;-2.134;2023-08-30T13:53:52;2.10;;;0.90;;
23628;SDS011;11991;57.150;-2.134;2023-08-30T13:56:19;2.05;;;0.90;;
23628;SDS011;11991;57.150;-2.134;2023-08-30T13:58:47;1.92;;;0.85;;
23628;SDS011;11991;57.150;-2.134;2023-08-30T14:01:14;2.05;;;0.73;;
23628;SDS011;11991;57.150;-2.134;2023-08-30T14:03:42;1.35;;;0.90;;
23628;SDS011;11991;57.150;-2.134;2023-08-30T14:06:09;1.65;;;1.15;;
23628;SDS011;11991;57.150;-2.134;2023-08-30T14:08:36;0.95;;;0.63;;
23628;SDS011;11991;57.150;-2.134;2023-08-30T14:11:04;1.90;;;0.90;;
23628;SDS011;11991;57.150;-2.134;2023-08-30T14:13:31;3.35;;;1.10;;
23628;SDS011;11991;57.150;-2.134;2023-08-30T14:16:02;1.83;;;0.70;;
23628;SDS011;11991;57.150;-2.134;2023-08-30T14:18:32;1.77;;;0.80;;
23628;SDS011;11991;57.150;-2.134;2023-08-30T14:20:59;0.90;;;0.60;;
23628;SDS011;11991;57.150;-2.134;2023-08-30T14:23:28;1.80;;;0.85;;
23628;SDS011;11991;57.150;-2.134;2023-08-30T14:25:57;1.60;;;0.70;;
23628;SDS011;11991;57.150;-2.134;2023-08-30T14:28:24;1.20;;;0.80;;
23628;SDS011;11991;57.150;-2.134;2023-08-30T14:30:52;0.85;;;0.70;;
23628;SDS011;11991;57.150;-2.134;2023-08-30T14:33:20;1.48;;;0.73;;
23628;SDS011;11991;57.150;-2.134;2023-08-30T14:35:47;1.65;;;0.82;;
23628;SDS011;11991;57.150;-2.134;2023-08-30T14:38:14;1.60;;;0.50;;
23628;SDS011;11991;57.150;-2.134;2023-08-30T14:40:41;1.52;;;0.80;;
23628;SDS011;11991;57.150;-2.134;2023-08-30T14:43:09;1.48;;;0.70;;
23628;SDS011;11991;57.150;-2.134;2023-08-30T14:45:36;0.70;;;0.50;;
23628;SDS011;11991;57.150;-2.134;2023-08-30T14:48:03;0.60;;;0.60;;
23628;SDS011;11991;57.150;-2.134;2023-08-30T14:50:30;1.27;;;0.70;;
23628;SDS011;11991;57.150;-2.134;2023-08-30T14:52:57;1.05;;;0.68;;